Time;durP1;ratioP1;P1;durP2;ratioP2;P2;SDS_P1;SDS_P2;PMS_P1;PMS_P2;Temp;Humidity;BMP_temperature;BMP_pressure;BME280_temperature;BME280_humidity;BME280_pressure;Samples;Min_cycle;Max_cycle;Signal;HPM_P1;HPM_P2
2021/05/25 00:00:27;;;;;;;2.72;0.80;;;12.50;83.10;;;11.82;74.66;99832.59;5070806;28;20048;-87
2021/05/25 00:03:08;;;;;;;4.80;0.90;;;12.50;83.70;;;11.84;74.43;99837.81;5071985;28;20044;-87
2021/05/25 00:05:41;;;;;;;1.80;0.70;;;12.60;83.40;;;11.83;74.84;99838.88;5071491;28;20040;-87
2021/05/25 00:08:19;;;;;;;2.67;0.90;;;12.50;83.70;;;11.83;74.82;99831.53;5071173;28;20069;-87
2021/05/25 00:10:57;;;;;;;2.88;0.80;;;12.60;83.90;;;11.84;74.57;99837.81;5070757;28;20076;-87
2021/05/25 00:13:36;;;;;;;2.83;0.88;;;12.50;83.70;;;11.83;74.91;99842.44;5070963;28;20079;-87
2021/05/25 00:16:14;;;;;;;5.63;0.80;;;12.50;84.00;;;11.81;75.11;99838.25;5070772;28;20044;-87
2021/05/25 00:18:55;;;;;;;2.20;0.65;;;12.50;84.20;;;11.81;75.16;99841.81;5070906;28;20060;-86
2021/05/25 00:21:30;;;;;;;3.30;0.90;;;12.50;83.90;;;11.80;74.71;99840.09;5070403;28;20045;-87
2021/05/25 00:24:05;;;;;;;3.17;0.93;;;12.50;83.60;;;11.80;74.20;99833.81;5070648;28;20558;-87
2021/05/25 00:26:40;;;;;;;3.22;1.10;;;12.50;83.70;;;11.78;74.34;99855.00;5070541;28;20097;-87
2021/05/25 00:29:18;;;;;;;2.90;1.00;;;12.50;83.50;;;11.77;74.25;99847.91;5083791;28;20048;-87
2021/05/25 00:31:59;;;;;;;2.22;0.77;;;12.50;83.60;;;11.74;73.99;99855.41;5070355;28;20036;-87
2021/05/25 00:34:35;;;;;;;5.97;1.10;;;12.50;83.30;;;11.73;74.17;99848.31;5070431;28;20048;-87
2021/05/25 00:37:13;;;;;;;6.45;1.05;;;12.40;83.20;;;11.73;73.58;99859.19;5070424;28;20056;-87
2021/05/25 00:39:52;;;;;;;1.48;0.70;;;12.40;83.10;;;11.73;73.50;99853.75;5085399;28;20059;-86
2021/05/25 00:42:25;;;;;;;3.15;0.90;;;12.40;83.20;;;11.66;73.74;99858.34;5069609;28;20052;-87
2021/05/25 00:45:05;;;;;;;2.28;0.75;;;12.40;83.00;;;11.64;74.08;99852.28;5070110;28;20121;-87
2021/05/25 00:47:46;;;;;;;2.20;0.75;;;12.40;83.20;;;11.60;73.74;99859.19;5069623;28;20067;-87
2021/05/25 00:50:24;;;;;;;3.60;0.80;;;12.40;83.00;;;11.59;74.22;99862.94;5036214;28;20048;-87
2021/05/25 00:53:04;;;;;;;3.17;0.90;;;12.30;83.30;;;11.55;74.58;99867.13;5070071;28;20048;-87
2021/05/25 00:55:46;;;;;;;3.22;0.80;;;12.30;83.60;;;11.55;74.66;99865.25;5069947;28;20043;-87
2021/05/25 00:58:19;;;;;;;2.75;0.60;;;12.30;83.60;;;11.55;74.45;99861.69;5069852;28;20051;-86
2021/05/25 01:01:00;;;;;;;3.35;0.90;;;12.30;83.70;;;11.53;74.19;99858.34;5069656;28;20048;-87
2021/05/25 01:03:38;;;;;;;2.42;0.77;;;12.30;83.60;;;11.59;73.92;99862.13;5070004;28;20504;-87
2021/05/25 01:06:17;;;;;;;3.00;0.93;;;12.30;83.30;;;11.56;73.99;99863.38;5069534;28;20048;-86
2021/05/25 01:08:52;;;;;;;3.42;0.80;;;12.30;83.40;;;11.57;73.87;99862.31;5069855;28;20047;-86
2021/05/25 01:11:30;;;;;;;4.82;0.90;;;12.20;83.40;;;11.55;74.24;99851.63;5069511;28;20045;-87
2021/05/25 01:14:09;;;;;;;4.85;0.93;;;12.20;83.40;;;11.57;73.54;99856.03;5069739;28;20056;-87
2021/05/25 01:16:49;;;;;;;2.70;0.80;;;12.20;83.30;;;11.57;73.70;99856.88;5069472;28;20044;-86
2021/05/25 01:19:27;;;;;;;2.78;0.80;;;12.30;83.50;;;11.57;74.17;99869.66;5069482;28;20055;-87
2021/05/25 01:22:03;;;;;;;3.28;1.00;;;12.30;83.80;;;11.54;73.79;99860.84;5069269;28;20045;-87
2021/05/25 01:24:45;;;;;;;3.97;0.70;;;12.30;83.70;;;11.55;73.78;99870.69;5069467;28;20044;-86
2021/05/25 01:27:20;;;;;;;4.63;0.98;;;12.30;83.40;;;11.55;73.76;99867.13;5069419;28;20060;-86
2021/05/25 01:30:00;;;;;;;5.53;0.80;;;12.30;83.10;;;11.52;74.04;99862.94;5069112;28;20758;-87
2021/05/25 01:32:35;;;;;;;3.97;1.02;;;12.30;83.30;;;11.50;73.83;99866.94;5069182;28;20432;-87
2021/05/25 01:35:15;;;;;;;6.82;0.80;;;12.30;83.20;;;11.49;73.91;99866.06;5069159;28;20052;-87
2021/05/25 01:37:53;;;;;;;3.72;0.95;;;12.30;83.40;;;11.48;73.38;99861.69;5067784;28;20121;-87
2021/05/25 01:40:29;;;;;;;3.28;0.70;;;12.30;83.20;;;11.54;73.42;99865.47;5068795;28;20393;-87
2021/05/25 01:43:07;;;;;;;3.42;0.80;;;12.30;83.00;;;11.52;73.33;99873.03;5068784;28;20040;-88
2021/05/25 01:45:46;;;;;;;4.15;1.10;;;12.20;83.00;;;11.53;73.71;99869.22;5069368;28;20053;-87
2021/05/25 01:48:24;;;;;;;2.40;0.80;;;12.20;83.30;;;11.53;73.00;99866.50;5069034;28;20578;-87
2021/05/25 01:51:02;;;;;;;4.03;1.10;;;12.30;83.00;;;11.54;73.23;99870.94;5068742;28;20048;-87
2021/05/25 01:53:38;;;;;;;7.07;0.90;;;12.30;82.90;;;11.53;73.02;99874.69;5084677;28;20051;-87
2021/05/25 01:56:16;;;;;;;2.42;0.70;;;12.30;82.70;;;11.50;73.57;99875.13;5064509;28;20044;-87
2021/05/25 01:58:54;;;;;;;4.32;0.80;;;12.20;82.80;;;11.46;73.98;99879.28;5068110;28;20045;-86
2021/05/25 02:01:27;;;;;;;2.55;0.80;;;12.20;83.10;;;11.42;73.62;99883.47;5068376;28;20629;-87
2021/05/25 02:04:05;;;;;;;1.95;0.70;;;12.20;82.90;;;11.39;73.86;99873.00;5067396;28;20793;-86
2021/05/25 02:06:40;;;;;;;3.30;0.73;;;12.20;83.10;;;11.39;73.75;99883.88;5068824;28;20161;-86
2021/05/25 02:09:19;;;;;;;3.70;1.00;;;12.20;83.20;;;11.39;73.21;99873.00;5068969;28;20079;-86
2021/05/25 02:11:54;;;;;;;3.85;1.10;;;12.20;83.10;;;11.37;72.88;99884.09;5068955;28;20044;-87
2021/05/25 02:14:29;;;;;;;2.72;0.68;;;12.10;82.60;;;11.37;72.71;99881.38;5069654;28;20041;-86
2021/05/25 02:17:07;;;;;;;2.72;0.63;;;12.10;82.30;;;11.36;73.04;99876.94;5069168;28;20498;-87
2021/05/25 02:19:39;;;;;;;2.58;0.80;;;12.10;82.50;;;11.35;72.92;99873.38;5068635;28;20044;-86
2021/05/25 02:22:12;;;;;;;2.53;0.73;;;12.10;82.60;;;11.35;72.63;99881.56;5068971;28;20106;-87
2021/05/25 02:24:50;;;;;;;3.72;0.70;;;12.10;82.30;;;11.33;72.48;99874.66;5067469;28;20117;-86
2021/05/25 02:27:29;;;;;;;2.42;0.73;;;12.00;82.10;;;11.30;72.36;99880.50;5068917;28;20067;-87
2021/05/25 02:30:08;;;;;;;3.90;0.85;;;12.00;81.90;;;11.27;72.22;99881.75;5068182;28;20044;-87
2021/05/25 02:32:40;;;;;;;2.88;0.73;;;12.00;81.70;;;11.25;72.53;99886.56;5068756;28;20049;-87
2021/05/25 02:35:19;;;;;;;2.13;0.75;;;12.00;82.00;;;11.28;72.36;99883.41;5068327;28;20665;-87
2021/05/25 02:37:57;;;;;;;2.17;0.70;;;12.00;82.00;;;11.25;72.71;99892.03;5068424;28;20049;-87
2021/05/25 02:40:34;;;;;;;2.50;0.70;;;12.00;82.40;;;11.24;72.98;99879.44;5067899;28;20052;-87
2021/05/25 02:43:13;;;;;;;2.45;0.75;;;12.00;82.70;;;11.23;72.81;99888.66;5068336;28;20550;-87
2021/05/25 02:45:51;;;;;;;2.00;0.73;;;11.90;82.50;;;11.21;72.57;99890.72;5068213;28;20420;-86
2021/05/25 02:48:28;;;;;;;4.95;0.73;;;11.90;82.40;;;11.21;72.41;99893.44;5068285;28;20048;-86
2021/05/25 02:51:06;;;;;;;1.95;0.70;;;11.90;82.20;;;11.22;72.24;99895.16;5067896;28;20048;-87
2021/05/25 02:53:44;;;;;;;4.00;0.88;;;11.90;82.00;;;11.21;72.36;99893.44;5068324;28;20059;-86
2021/05/25 02:56:25;;;;;;;3.20;0.80;;;11.90;81.90;;;11.22;71.83;99895.16;5068359;28;20056;-87
2021/05/25 02:59:03;;;;;;;4.13;0.70;;;11.90;81.90;;;11.19;71.85;99895.53;5083716;28;20126;-87
2021/05/25 03:01:41;;;;;;;6.18;0.70;;;11.90;81.90;;;11.21;71.94;99900.78;5067937;28;20927;-86
2021/05/25 03:04:19;;;;;;;2.10;0.68;;;11.90;81.60;;;11.21;72.17;99898.91;5068523;28;20071;-87
2021/05/25 03:06:58;;;;;;;1.90;0.57;;;11.90;81.80;;;11.18;71.85;99899.31;5083523;28;20102;-87
2021/05/25 03:09:33;;;;;;;2.38;0.70;;;11.90;81.80;;;11.18;72.17;99893.88;5067808;28;20460;-87
2021/05/25 03:12:13;;;;;;;2.30;0.70;;;11.90;81.80;;;11.15;71.64;99899.72;5071420;28;20125;-86
2021/05/25 03:14:48;;;;;;;3.80;0.70;;;11.90;81.80;;;11.15;71.74;99900.56;5071878;28;20044;-86
2021/05/25 03:17:24;;;;;;;4.60;1.20;;;11.80;81.60;;;11.10;72.18;99899.47;5070423;28;20056;-86
2021/05/25 03:20:02;;;;;;;2.65;0.70;;;11.80;81.80;;;11.03;71.70;99896.75;5071697;28;20075;-86
2021/05/25 03:22:40;;;;;;;1.75;0.60;;;11.80;81.60;;;11.06;71.84;99895.50;5072094;28;20040;-86
2021/05/25 03:25:22;;;;;;;3.83;0.70;;;11.80;81.50;;;11.03;71.85;99899.47;5072374;28;20086;-86
2021/05/25 03:27:58;;;;;;;2.55;0.77;;;11.80;81.80;;;11.07;71.66;99902.63;5072009;28;20165;-86
2021/05/25 03:30:35;;;;;;;3.53;0.80;;;11.80;81.40;;;11.06;71.32;99893.63;5071379;28;20465;-86
2021/05/25 03:33:14;;;;;;;3.53;0.70;;;11.80;81.30;;;11.12;71.05;99894.69;5071642;28;20052;-86
2021/05/25 03:35:49;;;;;;;1.75;0.70;;;11.80;81.00;;;11.12;71.24;99890.09;5071429;28;20462;-86
2021/05/25 03:38:27;;;;;;;6.53;0.80;;;11.80;81.20;;;11.10;71.24;99902.19;5071716;28;20075;-87
2021/05/25 03:43:55;;;;;;;2.22;0.70;;;11.80;81.50;;;11.09;71.85;99911.44;5010043;28;20483;-78
2021/05/25 03:46:33;;;;;;;3.35;0.90;;;11.80;81.80;;;11.10;71.85;99913.09;5011739;28;20108;-78
2021/05/25 03:49:08;;;;;;;3.30;0.77;;;11.80;81.70;;;11.06;71.93;99909.09;5011583;28;20053;-78
2021/05/25 03:51:43;;;;;;;3.17;0.90;;;11.80;81.70;;;11.07;72.04;99908.06;5011113;28;20060;-78
2021/05/25 03:54:25;;;;;;;2.80;0.70;;;11.80;81.70;;;11.08;72.09;99909.75;5011496;28;20046;-78
2021/05/25 03:57:07;;;;;;;2.30;0.70;;;11.80;81.90;;;11.09;71.71;99912.25;5011363;28;20042;-78
2021/05/25 03:59:43;;;;;;;3.28;0.80;;;11.70;81.50;;;11.07;71.79;99914.34;5010997;28;20054;-78
2021/05/25 04:02:18;;;;;;;3.22;0.80;;;11.80;81.70;;;11.05;71.36;99915.59;5011230;28;20130;-78
2021/05/25 04:04:53;;;;;;;4.32;0.70;;;11.80;81.20;;;11.07;72.26;99911.63;5011308;28;20056;-78
2021/05/25 04:07:28;;;;;;;4.05;0.65;;;11.80;81.80;;;11.08;72.07;99915.19;5011392;28;20049;-78
2021/05/25 04:10:03;;;;;;;2.20;0.70;;;11.80;81.80;;;11.08;72.23;99915.19;5011119;28;20061;-78
2021/05/25 04:12:41;;;;;;;6.82;0.80;;;11.80;81.90;;;11.09;71.80;99914.97;5026254;28;20045;-78
2021/05/25 04:15:19;;;;;;;3.38;0.90;;;11.70;81.90;;;11.10;71.85;99918.53;5011187;28;20057;-78
2021/05/25 04:17:55;;;;;;;4.25;0.90;;;11.80;82.00;;;11.10;72.63;99918.53;5011132;28;20049;-78
2021/05/25 04:20:30;;;;;;;4.55;1.05;;;11.80;82.30;;;11.09;73.38;99923.16;5010833;28;20581;-77
2021/05/25 04:23:08;;;;;;;4.28;0.90;;;11.80;82.60;;;11.06;73.89;99917.28;5009765;28;20096;-77
2021/05/25 04:25:46;;;;;;;2.90;0.70;;;11.80;83.00;;;11.06;74.07;99920.00;5010896;28;20100;-77
2021/05/25 04:28:24;;;;;;;2.60;0.75;;;11.80;83.30;;;11.04;74.63;99919.34;5010913;28;20042;-77
2021/05/25 04:31:08;;;;;;;2.05;0.82;;;11.80;83.70;;;11.02;75.13;99926.88;5010298;28;20057;-78
2021/05/25 04:33:45;;;;;;;1.42;0.55;;;11.80;84.20;;;10.99;75.41;99921.88;5010754;28;20107;-77
2021/05/25 04:36:23;;;;;;;2.60;0.70;;;11.80;84.40;;;10.96;75.63;99926.66;5010674;28;20042;-77
2021/05/25 04:39:01;;;;;;;3.00;1.15;;;11.80;84.50;;;10.94;76.15;99934.19;5010695;28;20053;-78
2021/05/25 04:41:41;;;;;;;3.92;0.70;;;11.80;84.80;;;10.95;76.35;99933.16;5010203;28;20049;-78
2021/05/25 04:44:16;;;;;;;2.92;0.80;;;11.70;85.30;;;10.94;76.52;99936.91;5010676;28;20053;-78
2021/05/25 04:46:55;;;;;;;2.00;0.80;;;11.70;85.40;;;10.92;76.04;99930.81;5025672;28;20450;-78
2021/05/25 04:49:32;;;;;;;1.63;0.60;;;11.70;85.40;;;10.93;76.97;99929.78;5010441;28;20042;-78
2021/05/25 04:52:07;;;;;;;1.52;0.57;;;11.70;85.70;;;10.93;76.93;99935.25;5010492;28;20112;-78
2021/05/25 04:54:42;;;;;;;3.35;0.88;;;11.70;85.90;;;10.94;77.34;99941.50;5010392;28;20780;-78
2021/05/25 04:57:22;;;;;;;3.08;0.70;;;11.70;86.10;;;10.93;77.56;99940.69;5010347;28;20046;-77
2021/05/25 05:00:01;;;;;;;2.80;0.70;;;11.70;86.20;;;10.96;77.28;99942.97;5009987;28;20046;-77
2021/05/25 05:02:44;;;;;;;3.17;0.80;;;11.70;86.30;;;10.95;77.19;99941.31;5009915;28;20533;-77
2021/05/25 05:05:21;;;;;;;2.20;0.80;;;11.70;86.20;;;10.97;76.97;99938.41;5010107;28;20056;-78
2021/05/25 05:07:51;;;;;;;1.90;0.60;;;11.80;85.90;;;10.96;77.21;99940.25;5010111;28;20064;-78
2021/05/25 05:10:29;;;;;;;5.60;0.80;;;11.80;86.20;;;10.94;77.41;99936.91;5009646;28;20061;-77
2021/05/25 05:13:09;;;;;;;2.95;0.80;;;11.80;86.20;;;10.98;78.03;99941.97;5009933;28;20046;-77
2021/05/25 05:15:47;;;;;;;2.15;0.60;;;11.80;86.70;;;10.98;77.83;99941.97;5009951;28;20133;-77
2021/05/25 05:18:26;;;;;;;3.72;0.80;;;11.80;86.50;;;10.99;78.50;99943.66;5010095;28;20042;-77
2021/05/25 05:21:04;;;;;;;3.45;0.85;;;11.80;87.00;;;11.00;77.96;99945.31;5009330;28;20072;-77
2021/05/25 05:23:41;;;;;;;2.03;0.82;;;11.80;86.70;;;11.02;77.21;99948.69;5009897;28;20041;-77
2021/05/25 05:26:19;;;;;;;1.98;0.80;;;11.80;86.30;;;11.01;77.26;99947.84;5009605;28;20053;-77
2021/05/25 05:28:57;;;;;;;3.25;0.68;;;11.80;86.20;;;11.03;77.38;99947.66;5009518;28;20049;-77
2021/05/25 05:31:33;;;;;;;2.92;0.90;;;11.80;86.30;;;11.07;77.42;99940.75;5028643;28;20052;-77
2021/05/25 05:34:09;;;;;;;2.38;0.93;;;11.80;86.50;;;11.11;77.98;99950.19;5044447;28;20049;-77
2021/05/25 05:36:48;;;;;;;1.73;0.70;;;11.90;86.50;;;11.14;77.76;99941.63;5029442;28;20581;-77
2021/05/25 05:39:23;;;;;;;3.63;1.08;;;11.90;86.70;;;11.15;78.01;99944.13;5029201;28;20049;-77
2021/05/25 05:41:58;;;;;;;2.70;1.02;;;12.00;86.40;;;11.26;77.97;99945.44;5028878;28;20083;-77
2021/05/25 05:44:37;;;;;;;4.00;0.90;;;12.00;86.40;;;11.32;78.35;99946.50;5029237;28;20052;-78
2021/05/25 05:47:15;;;;;;;4.03;1.10;;;12.10;86.70;;;11.45;78.23;99946.56;5029331;28;20052;-79
2021/05/25 05:49:58;;;;;;;3.55;0.98;;;12.20;86.50;;;11.52;77.79;99946.59;5044178;28;20053;-79
2021/05/25 05:52:36;;;;;;;2.60;0.95;;;12.40;86.10;;;11.50;77.72;99943.25;5029187;28;20064;-80
2021/05/25 05:55:17;;;;;;;3.80;1.00;;;12.40;86.00;;;11.51;77.20;99947.63;5029224;28;20049;-79
2021/05/25 05:57:52;;;;;;;;;;;12.40;85.80;;;11.47;77.58;99958.09;5029816;28;20049;-78
2021/05/25 06:00:31;;;;;;;2.83;0.70;;;12.40;85.70;;;11.48;77.91;99953.47;5028685;28;19925;-78
2021/05/25 06:03:09;;;;;;;2.72;0.98;;;12.40;86.10;;;11.43;78.13;99950.53;5029354;28;20041;-78
2021/05/25 06:05:43;;;;;;;3.22;1.00;;;12.30;86.30;;;11.42;77.90;99955.13;5027545;28;20481;-78
2021/05/25 06:08:22;;;;;;;2.45;1.00;;;12.30;86.30;;;11.40;77.98;99953.66;5029058;28;20490;-77
2021/05/25 06:11:00;;;;;;;2.70;1.10;;;12.30;86.40;;;11.35;78.11;99957.00;5028208;28;20045;-78
2021/05/25 06:13:38;;;;;;;2.17;1.00;;;12.30;86.60;;;11.29;78.09;99953.22;5028787;28;20053;-77
2021/05/25 06:16:16;;;;;;;4.90;1.15;;;12.20;86.60;;;11.26;78.77;99950.88;5024739;28;20556;-78
2021/05/25 06:18:50;;;;;;;4.57;1.10;;;12.20;86.90;;;11.25;79.35;99954.66;5009073;28;20049;-79
2021/05/25 06:21:27;;;;;;;3.58;1.15;;;12.20;87.30;;;11.26;78.81;99956.34;5006361;28;20112;-78
2021/05/25 06:24:02;;;;;;;2.95;1.15;;;12.20;87.40;;;11.24;79.13;99961.16;5007847;28;20046;-79
2021/05/25 06:26:40;;;;;;;3.13;1.23;;;12.10;87.50;;;11.21;78.50;99958.81;5008083;28;20050;-79
2021/05/25 06:29:18;;;;;;;3.92;1.40;;;12.10;87.00;;;11.19;79.46;99955.47;5008238;28;20074;-79
2021/05/25 06:31:59;;;;;;;5.78;1.23;;;12.10;87.80;;;11.20;79.18;99962.59;5008069;28;20042;-79
2021/05/25 06:34:34;;;;;;;3.22;1.10;;;12.10;87.70;;;11.21;79.24;99958.81;5008903;28;20042;-78
2021/05/25 06:37:14;;;;;;;3.42;1.08;;;12.10;87.70;;;11.25;79.79;99965.56;5008556;28;20509;-79
2021/05/25 06:39:53;;;;;;;4.82;1.20;;;12.10;88.00;;;11.28;80.07;99964.31;5008072;28;20752;-79
2021/05/25 06:42:30;;;;;;;2.85;1.10;;;12.20;88.20;;;11.33;80.86;99968.09;5008165;28;20490;-79
2021/05/25 06:45:09;;;;;;;6.40;1.25;;;12.20;88.60;;;11.33;80.74;99962.66;5008376;28;20042;-79
2021/05/25 06:47:48;;;;;;;3.55;1.02;;;12.20;88.60;;;11.40;81.21;99967.28;5012591;28;20863;-82
2021/05/25 06:50:26;;;;;;;2.88;1.13;;;12.30;88.90;;;11.41;80.91;99968.97;5011942;28;20045;-76
2021/05/25 06:53:05;;;;;;;4.93;1.00;;;12.30;88.70;;;11.42;80.59;99976.94;5012431;28;20111;-76
2021/05/25 06:55:43;;;;;;;3.10;0.90;;;12.30;88.40;;;11.47;80.37;99979.06;5011910;28;20469;-76
2021/05/25 06:58:21;;;;;;;3.55;0.90;;;12.30;88.40;;;11.48;80.59;99975.28;5008723;28;20033;-77
2021/05/25 07:00:56;;;;;;;5.20;1.08;;;12.40;88.40;;;11.50;79.83;99981.38;5010351;28;20054;-76
2021/05/25 07:03:34;;;;;;;3.97;0.98;;;12.40;88.20;;;11.48;79.35;99978.00;5012268;28;20045;-76
2021/05/25 07:06:09;;;;;;;3.75;0.80;;;12.30;87.90;;;11.42;78.83;99985.09;5011448;28;20508;-76
2021/05/25 07:08:48;;;;;;;2.55;0.75;;;12.30;87.10;;;11.40;78.15;99986.34;5012059;28;20050;-76
2021/05/25 07:11:27;;;;;;;1.55;0.63;;;12.30;86.90;;;11.29;78.31;99988.63;5011791;28;20505;-76
2021/05/25 07:14:02;;;;;;;2.55;0.90;;;12.20;86.70;;;11.26;78.51;99986.31;5012244;28;20135;-77
2021/05/25 07:16:41;;;;;;;2.53;1.00;;;12.10;86.90;;;11.25;78.72;99986.50;5012221;28;20056;-77
2021/05/25 07:19:16;;;;;;;1.67;0.68;;;12.10;87.30;;;11.22;79.01;99992.38;5011698;28;20046;-77
2021/05/25 07:21:51;;;;;;;2.28;0.50;;;12.10;87.70;;;11.23;79.20;99984.00;5011723;28;20529;-77
2021/05/25 07:24:30;;;;;;;4.43;0.70;;;12.10;87.70;;;11.27;80.34;99988.00;5011896;28;20053;-76
2021/05/25 07:27:06;;;;;;;2.85;0.93;;;12.10;88.30;;;11.33;80.85;99984.44;5011686;28;20061;-76
2021/05/25 07:29:44;;;;;;;3.60;0.70;;;12.20;88.60;;;11.38;81.43;99986.56;5011170;28;20474;-77
2021/05/25 07:32:19;;;;;;;2.72;0.90;;;12.30;89.20;;;11.40;80.69;99989.91;5011494;28;20042;-77
2021/05/25 07:34:54;;;;;;;2.53;0.80;;;12.30;88.60;;;11.43;80.04;99996.88;5011971;28;20100;-77
2021/05/25 07:37:33;;;;;;;2.83;0.88;;;12.30;88.50;;;11.43;80.57;99994.13;5023611;28;20049;-77
2021/05/25 07:40:15;;;;;;;3.33;1.00;;;12.30;88.80;;;11.43;80.02;99994.97;5012552;28;20069;-77
2021/05/25 07:42:51;;;;;;;1.95;0.70;;;12.30;88.50;;;11.39;80.33;100001.88;5011710;28;20046;-77
2021/05/25 07:45:29;;;;;;;3.70;1.02;;;12.30;88.40;;;11.34;80.40;100001.63;5011506;28;20049;-77
2021/05/25 07:48:04;;;;;;;2.78;1.00;;;12.20;88.40;;;11.32;80.29;100001.81;5011816;28;20046;-78
2021/05/25 07:50:42;;;;;;;4.57;0.73;;;12.30;88.30;;;11.33;80.25;100008.13;5011604;28;20786;-77
2021/05/25 07:53:20;;;;;;;2.88;0.82;;;12.20;88.20;;;11.28;80.06;100013.34;5011565;28;20050;-77
2021/05/25 07:56:00;;;;;;;3.30;1.00;;;12.20;88.30;;;11.24;79.93;100021.06;5011723;28;20045;-77
2021/05/25 07:58:38;;;;;;;2.83;1.00;;;12.20;88.10;;;11.29;80.96;100012.28;5011597;28;20046;-77
2021/05/25 08:01:14;;;;;;;2.83;1.02;;;12.20;88.80;;;11.40;81.49;100021.78;5011151;28;20280;-77
2021/05/25 08:03:46;;;;;;;6.07;1.35;;;12.30;89.60;;;11.44;82.30;100029.38;5011390;28;20052;-76
2021/05/25 08:06:24;;;;;;;4.32;1.42;;;12.40;89.70;;;11.48;82.15;100032.50;5009906;28;20054;-77
2021/05/25 08:09:00;;;;;;;2.78;1.48;;;12.40;89.70;;;11.48;82.02;100030.63;5011437;28;20796;-77
2021/05/25 08:11:39;;;;;;;3.83;1.35;;;12.50;89.80;;;11.50;81.28;100038.63;5011010;28;20057;-76
2021/05/25 08:14:14;;;;;;;4.50;1.40;;;12.40;89.20;;;11.53;81.34;100047.19;5011395;28;20045;-77
2021/05/25 08:16:46;;;;;;;4.38;1.42;;;12.50;89.20;;;11.52;81.24;100042.81;5011404;28;20038;-77
2021/05/25 08:19:26;;;;;;;5.30;1.73;;;12.40;89.10;;;11.50;81.21;100054.97;5011257;28;20050;-77
2021/05/25 08:22:04;;;;;;;5.15;2.70;;;12.40;89.20;;;11.49;80.87;100056.00;5011096;28;20038;-77
2021/05/25 08:24:40;;;;;;;3.22;1.90;;;12.40;88.90;;;11.50;80.47;100060.41;5011227;28;20505;-77
2021/05/25 08:27:23;;;;;;;4.43;1.90;;;12.40;88.50;;;11.53;81.15;100054.53;5011189;28;20053;-77
2021/05/25 08:29:55;;;;;;;4.70;2.40;;;12.40;88.90;;;11.65;82.96;100055.66;5010762;28;20057;-76
2021/05/25 08:32:33;;;;;;;3.85;2.65;;;12.50;90.10;;;11.76;83.17;100056.94;5010809;28;20049;-77
2021/05/25 08:35:13;;;;;;;5.68;2.58;;;12.60;90.60;;;11.80;82.82;100057.38;5010825;28;20053;-79
2021/05/25 08:37:57;;;;;;;3.47;2.30;;;12.70;90.80;;;11.79;82.35;100064.72;5010738;28;20082;-77
2021/05/25 08:40:36;;;;;;;5.10;2.42;;;12.70;90.30;;;11.80;82.29;100074.56;5010481;28;20046;-77
2021/05/25 08:43:16;;;;;;;3.40;2.60;;;12.70;90.10;;;11.77;82.10;100071.44;5010490;28;20054;-77
2021/05/25 08:45:54;;;;;;;5.28;2.70;;;12.70;89.80;;;11.76;81.63;100070.56;5010683;28;20069;-77
2021/05/25 08:48:30;;;;;;;4.05;2.47;;;12.70;89.60;;;11.75;81.47;100068.91;5010728;28;20552;-77
2021/05/25 08:51:04;;;;;;;6.10;2.42;;;12.70;89.30;;;11.74;80.86;100073.50;5010404;28;20409;-77
2021/05/25 08:53:44;;;;;;;3.65;2.35;;;12.70;89.10;;;11.76;81.31;100077.91;5010713;28;20038;-77
2021/05/25 08:56:22;;;;;;;4.53;2.80;;;12.70;89.30;;;11.76;81.21;100081.47;5010637;28;20055;-77
2021/05/25 08:59:01;;;;;;;4.88;2.92;;;12.70;89.20;;;11.67;81.78;100082.69;5010620;28;20045;-77
2021/05/25 09:01:36;;;;;;;8.05;3.40;;;12.70;89.20;;;11.76;82.24;100075.19;5010152;28;20046;-77
2021/05/25 09:04:15;;;;;;;10.70;3.35;;;12.80;89.50;;;11.86;82.54;100081.97;5010313;28;20073;-77
2021/05/25 09:06:52;;;;;;;6.40;3.30;;;12.80;89.90;;;11.99;85.12;100097.53;5010439;28;20046;-77
2021/05/25 09:09:30;;;;;;;9.25;3.58;;;12.90;90.30;;;12.06;83.74;100092.13;5009623;28;20050;-77
2021/05/25 09:12:09;;;;;;;4.53;3.10;;;13.10;90.50;;;12.13;83.81;100093.81;5010039;28;20514;-77
2021/05/25 09:14:58;;;;;;;4.63;2.80;;;13.10;90.40;;;12.20;83.07;100098.44;5010130;28;20042;-76
2021/05/25 09:17:37;;;;;;;4.20;2.63;;;13.20;90.30;;;12.24;84.00;100089.66;5008554;28;20538;-77
2021/05/25 09:20:16;;;;;;;5.15;2.65;;;13.30;90.50;;;12.32;83.56;100096.81;5009783;28;20038;-77
2021/05/25 09:22:50;;;;;;;7.65;2.50;;;13.40;90.20;;;12.33;84.99;100098.47;5009839;28;20120;-77
2021/05/25 09:25:26;;;;;;;4.45;2.55;;;13.40;90.60;;;12.45;87.08;100088.66;5010239;28;20151;-77
2021/05/25 09:27:59;;;;;;;6.22;2.95;;;13.60;92.70;;;12.54;87.48;100088.44;5010056;28;20056;-77
2021/05/25 09:30:41;;;;;;;5.30;3.00;;;13.70;92.80;;;12.63;87.02;100087.22;5009447;28;20046;-77
2021/05/25 09:33:20;;;;;;;4.80;3.10;;;13.80;92.20;;;12.69;87.80;100091.81;5009833;28;20054;-76
2021/05/25 09:35:59;;;;;;;3.90;2.80;;;13.90;92.30;;;12.73;85.95;100079.44;5009849;28;20045;-76
2021/05/25 09:38:36;;;;;;;5.35;3.80;;;14.00;90.70;;;12.73;83.98;100087.63;5009466;28;20050;-77
2021/05/25 09:41:12;;;;;;;4.63;3.22;;;13.90;89.30;;;12.67;83.22;100088.47;5009233;28;20467;-76
2021/05/25 09:43:56;;;;;;;4.65;3.30;;;13.90;88.70;;;12.60;82.05;100098.53;5061495;23;20048;-81
2021/05/25 09:46:39;;;;;;;10.18;3.28;;;13.80;88.20;;;12.57;81.85;100090.78;5031255;28;20048;-80
2021/05/25 09:49:13;;;;;;;4.85;3.38;;;13.80;88.10;;;12.55;81.23;100090.16;5049107;28;20045;-80
2021/05/25 09:52:02;;;;;;;6.18;3.08;;;13.80;87.60;;;12.55;81.45;100095.59;5046538;28;20394;-79
2021/05/25 09:54:41;;;;;;;6.20;3.25;;;13.70;87.80;;;12.61;83.48;100083.84;5029123;28;20056;-79
2021/05/25 09:57:16;;;;;;;6.63;3.15;;;13.80;89.00;;;12.74;84.95;100086.59;5029100;28;20049;-81
2021/05/25 09:59:51;;;;;;;5.90;4.20;;;13.90;90.00;;;12.77;83.39;100093.50;5028834;28;20053;-81
2021/05/25 10:02:29;;;;;;;4.72;3.20;;;14.00;89.00;;;12.78;82.68;100096.03;5010951;28;20053;-80
2021/05/25 10:05:09;;;;;;;7.70;3.42;;;14.00;88.30;;;12.73;81.84;100097.72;5029044;28;20111;-81
2021/05/25 10:07:47;;;;;;;5.47;3.38;;;13.90;87.90;;;12.66;81.97;100094.97;5029087;28;20046;-80
2021/05/25 10:10:22;;;;;;;8.57;3.55;;;13.90;88.10;;;12.64;82.14;100095.19;5010865;28;20049;-80
2021/05/25 10:13:01;;;;;;;5.30;3.65;;;13.80;88.00;;;12.62;83.20;100090.97;5028842;28;20041;-79
2021/05/25 10:15:39;;;;;;;6.75;3.63;;;13.80;88.70;;;12.66;83.49;100092.22;5028988;28;20056;-80
2021/05/25 10:18:34;;;;;;;7.47;3.63;;;13.80;89.20;;;12.69;83.76;100102.75;5028879;28;20056;-81
2021/05/25 10:21:13;;;;;;;4.57;3.30;;;13.80;89.30;;;12.63;83.13;100115.34;5027632;28;20049;-80
2021/05/25 10:23:46;;;;;;;7.13;2.90;;;13.80;88.80;;;12.54;81.10;100132.13;5028507;28;20051;-80
2021/05/25 10:26:28;;;;;;;7.05;2.80;;;13.70;87.20;;;12.43;81.01;100139.88;5028614;28;20045;-80
2021/05/25 10:29:04;;;;;;;7.60;2.50;;;13.70;87.00;;;12.38;80.66;100131.47;5028710;28;20041;-80
2021/05/25 10:31:48;;;;;;;4.55;2.20;;;13.60;87.10;;;12.36;81.33;100143.66;5028266;28;20057;-80
2021/05/25 10:34:33;;;;;;;4.55;1.98;;;13.50;87.30;;;12.33;81.50;100153.91;5028774;28;20085;-80
2021/05/25 10:37:16;;;;;;;4.55;2.20;;;13.50;87.80;;;12.28;81.22;100158.28;5028698;28;20049;-80
2021/05/25 10:39:58;;;;;;;6.65;2.10;;;13.50;87.80;;;12.22;80.82;100157.25;5028444;28;20053;-80
2021/05/25 10:42:39;;;;;;;6.90;1.98;;;13.40;87.30;;;12.18;81.26;100169.59;5028534;28;20588;-79
2021/05/25 10:45:26;;;;;;;7.95;2.45;;;13.40;87.70;;;12.19;81.50;100165.81;5028741;28;20057;-80
2021/05/25 10:48:08;;;;;;;7.90;2.88;;;13.40;87.80;;;12.20;81.48;100169.38;5028713;28;20045;-80
2021/05/25 10:50:54;;;;;;;6.68;2.40;;;13.30;88.10;;;12.19;81.71;100170.44;5027935;28;20056;-80
2021/05/25 10:53:30;;;;;;;6.97;2.60;;;13.30;88.10;;;12.16;81.29;100162.66;5026935;28;20041;-80
2021/05/25 10:56:12;;;;;;;7.38;2.40;;;13.30;87.90;;;12.19;82.37;100159.53;5026904;28;20041;-79
2021/05/25 10:59:02;;;;;;;11.52;3.13;;;13.30;88.50;;;12.22;82.48;100161.84;5027905;28;20053;-79
2021/05/25 11:01:39;;;;;;;7.13;2.72;;;13.30;89.10;;;12.24;83.04;100165.19;5028053;28;20060;-79
2021/05/25 11:04:18;;;;;;;7.35;3.15;;;13.30;89.40;;;12.26;83.49;100168.56;5028144;28;20037;-80